sensor_id;sensor_type;location;lat;lon;timestamp;temperature;humidity
16479;DHT22;8350;52.316;10.530;2023-09-18T00:00:46;17.80;99.90
16479;DHT22;8350;52.316;10.530;2023-09-18T00:03:15;17.60;99.90
16479;DHT22;8350;52.316;10.530;2023-09-18T00:05:43;17.70;99.90
16479;DHT22;8350;52.316;10.530;2023-09-18T00:08:10;17.60;99.90
16479;DHT22;8350;52.316;10.530;2023-09-18T00:10:38;17.60;99.90
16479;DHT22;8350;52.316;10.530;2023-09-18T00:13:05;17.50;99.90
16479;DHT22;8350;52.316;10.530;2023-09-18T00:15:32;17.50;99.90
16479;DHT22;8350;52.316;10.530;2023-09-18T00:17:59;17.40;99.90
16479;DHT22;8350;52.316;10.530;2023-09-18T00:20:26;17.30;99.90
16479;DHT22;8350;52.316;10.530;2023-09-18T00:22:54;17.20;99.90
16479;DHT22;8350;52.316;10.530;2023-09-18T00:25:21;17.10;99.90
16479;DHT22;8350;52.316;10.530;2023-09-18T00:27:49;17.00;99.90
16479;DHT22;8350;52.316;10.530;2023-09-18T00:30:17;17.00;99.90
16479;DHT22;8350;52.316;10.530;2023-09-18T00:32:44;17.10;99.90
16479;DHT22;8350;52.316;10.530;2023-09-18T00:35:12;17.10;99.90
16479;DHT22;8350;52.316;10.530;2023-09-18T00:37:51;17.20;99.90
16479;DHT22;8350;52.316;10.530;2023-09-18T00:40:19;17.10;99.90
16479;DHT22;8350;52.316;10.530;2023-09-18T00:42:46;17.10;99.90
16479;DHT22;8350;52.316;10.530;2023-09-18T00:45:14;17.10;99.90
16479;DHT22;8350;52.316;10.530;2023-09-18T00:47:41;17.10;99.90
16479;DHT22;8350;52.316;10.530;2023-09-18T00:50:11;17.10;99.90
16479;DHT22;8350;52.316;10.530;2023-09-18T00:52:38;17.10;99.90
16479;DHT22;8350;52.316;10.530;2023-09-18T00:55:07;17.00;99.90
16479;DHT22;8350;52.316;10.530;2023-09-18T00:57:35;16.90;99.90
16479;DHT22;8350;52.316;10.530;2023-09-18T01:00:03;16.90;99.90
16479;DHT22;8350;52.316;10.530;2023-09-18T01:02:33;16.80;99.90
16479;DHT22;8350;52.316;10.530;2023-09-18T01:05:00;16.70;99.90
16479;DHT22;8350;52.316;10.530;2023-09-18T01:07:27;16.60;99.90
16479;DHT22;8350;52.316;10.530;2023-09-18T01:09:55;16.60;99.90
16479;DHT22;8350;52.316;10.530;2023-09-18T01:12:35;16.50;99.90
16479;DHT22;8350;52.316;10.530;2023-09-18T01:15:07;16.40;99.90
16479;DHT22;8350;52.316;10.530;2023-09-18T01:17:40;16.30;99.90
16479;DHT22;8350;52.316;10.530;2023-09-18T01:20:10;16.30;99.90
16479;DHT22;8350;52.316;10.530;2023-09-18T01:22:39;16.40;99.90
16479;DHT22;8350;52.316;10.530;2023-09-18T01:25:07;16.40;99.90
16479;DHT22;8350;52.316;10.530;2023-09-18T01:27:34;16.30;99.90
16479;DHT22;8350;52.316;10.530;2023-09-18T01:30:00;16.30;99.90
16479;DHT22;8350;52.316;10.530;2023-09-18T01:32:30;16.30;99.90
16479;DHT22;8350;52.316;10.530;2023-09-18T01:35:02;16.40;99.90
16479;DHT22;8350;52.316;10.530;2023-09-18T01:37:31;16.40;99.90
16479;DHT22;8350;52.316;10.530;2023-09-18T01:40:02;16.50;99.90
16479;DHT22;8350;52.316;10.530;2023-09-18T01:42:34;16.60;99.90
16479;DHT22;8350;52.316;10.530;2023-09-18T01:45:02;16.60;99.90
16479;DHT22;8350;52.316;10.530;2023-09-18T01:47:30;16.50;99.90
16479;DHT22;8350;52.316;10.530;2023-09-18T01:49:57;16.60;99.90
16479;DHT22;8350;52.316;10.530;2023-09-18T01:52:24;16.60;99.90
16479;DHT22;8350;52.316;10.530;2023-09-18T01:54:51;16.50;99.90
16479;DHT22;8350;52.316;10.530;2023-09-18T01:57:20;16.40;99.90
16479;DHT22;8350;52.316;10.530;2023-09-18T01:59:47;16.30;99.90
16479;DHT22;8350;52.316;10.530;2023-09-18T02:02:14;16.30;99.90
16479;DHT22;8350;52.316;10.530;2023-09-18T02:04:41;16.30;99.90
16479;DHT22;8350;52.316;10.530;2023-09-18T02:07:08;16.30;99.90
16479;DHT22;8350;52.316;10.530;2023-09-18T02:09:35;16.20;99.90
16479;DHT22;8350;52.316;10.530;2023-09-18T02:12:03;16.10;99.90
16479;DHT22;8350;52.316;10.530;2023-09-18T02:14:31;16.00;99.90
16479;DHT22;8350;52.316;10.530;2023-09-18T02:16:59;16.00;99.90
16479;DHT22;8350;52.316;10.530;2023-09-18T02:19:26;16.10;99.90
16479;DHT22;8350;52.316;10.530;2023-09-18T02:21:56;16.10;99.90
16479;DHT22;8350;52.316;10.530;2023-09-18T02:24:24;16.00;99.90
16479;DHT22;8350;52.316;10.530;2023-09-18T02:26:51;16.00;99.90
16479;DHT22;8350;52.316;10.530;2023-09-18T02:29:18;15.90;99.90
16479;DHT22;8350;52.316;10.530;2023-09-18T02:31:46;15.90;99.90
16479;DHT22;8350;52.316;10.530;2023-09-18T02:34:13;15.90;99.90
16479;DHT22;8350;52.316;10.530;2023-09-18T02:36:40;16.00;99.90
16479;DHT22;8350;52.316;10.530;2023-09-18T02:39:09;15.90;99.90
16479;DHT22;8350;52.316;10.530;2023-09-18T02:41:36;15.90;99.90
16479;DHT22;8350;52.316;10.530;2023-09-18T02:44:06;15.90;99.90
16479;DHT22;8350;52.316;10.530;2023-09-18T02:46:33;15.90;99.90
16479;DHT22;8350;52.316;10.530;2023-09-18T02:49:01;15.90;99.90
16479;DHT22;8350;52.316;10.530;2023-09-18T02:51:29;16.00;99.90
16479;DHT22;8350;52.316;10.530;2023-09-18T02:53:57;15.90;99.90
16479;DHT22;8350;52.316;10.530;2023-09-18T02:56:24;15.80;99.90
16479;DHT22;8350;52.316;10.530;2023-09-18T02:58:51;15.70;99.90
16479;DHT22;8350;52.316;10.530;2023-09-18T03:01:18;15.70;99.90
16479;DHT22;8350;52.316;10.530;2023-09-18T03:03:45;15.60;99.90
16479;DHT22;8350;52.316;10.530;2023-09-18T03:06:13;15.70;99.90
16479;DHT22;8350;52.316;10.530;2023-09-18T03:08:41;15.60;99.90
16479;DHT22;8350;52.316;10.530;2023-09-18T03:11:11;15.60;99.90
16479;DHT22;8350;52.316;10.530;2023-09-18T03:13:43;15.60;99.90
16479;DHT22;8350;52.316;10.530;2023-09-18T03:16:10;15.60;99.90
16479;DHT22;8350;52.316;10.530;2023-09-18T03:18:40;15.80;99.90
16479;DHT22;8350;52.316;10.530;2023-09-18T03:21:08;15.80;99.90
16479;DHT22;8350;52.316;10.530;2023-09-18T03:23:38;15.80;99.90
16479;DHT22;8350;52.316;10.530;2023-09-18T03:26:05;15.70;99.90
16479;DHT22;8350;52.316;10.530;2023-09-18T03:28:35;15.70;99.90
16479;DHT22;8350;52.316;10.530;2023-09-18T03:31:02;15.70;99.90
16479;DHT22;8350;52.316;10.530;2023-09-18T03:33:30;15.60;99.90
16479;DHT22;8350;52.316;10.530;2023-09-18T03:35:57;15.60;99.90
16479;DHT22;8350;52.316;10.530;2023-09-18T03:38:24;15.60;99.90
16479;DHT22;8350;52.316;10.530;2023-09-18T03:40:52;15.60;99.90
16479;DHT22;8350;52.316;10.530;2023-09-18T03:43:19;15.60;99.90
16479;DHT22;8350;52.316;10.530;2023-09-18T03:45:46;15.60;99.90
16479;DHT22;8350;52.316;10.530;2023-09-18T03:48:13;15.60;99.90
16479;DHT22;8350;52.316;10.530;2023-09-18T03:50:40;15.70;99.90
16479;DHT22;8350;52.316;10.530;2023-09-18T03:53:10;15.60;99.90
16479;DHT22;8350;52.316;10.530;2023-09-18T03:55:37;15.50;99.90
16479;DHT22;8350;52.316;10.530;2023-09-18T03:58:06;15.60;99.90
16479;DHT22;8350;52.316;10.530;2023-09-18T04:00:33;15.60;99.90
16479;DHT22;8350;52.316;10.530;2023-09-18T04:03:00;15.50;99.90
16479;DHT22;8350;52.316;10.530;2023-09-18T04:05:27;15.40;99.90
16479;DHT22;8350;52.316;10.530;2023-09-18T04:07:54;15.30;99.90
16479;DHT22;8350;52.316;10.530;2023-09-18T04:10:24;15.20;99.90
16479;DHT22;8350;52.316;10.530;2023-09-18T04:12:52;15.20;99.90
16479;DHT22;8350;52.316;10.530;2023-09-18T04:15:22;15.20;99.90
16479;DHT22;8350;52.316;10.530;2023-09-18T04:17:49;15.20;99.90
16479;DHT22;8350;52.316;10.530;2023-09-18T04:20:16;15.20;99.90
16479;DHT22;8350;52.316;10.530;2023-09-18T04:22:45;15.30;99.90
16479;DHT22;8350;52.316;10.530;2023-09-18T04:25:15;15.30;99.90
16479;DHT22;8350;52.316;10.530;2023-09-18T04:27:42;15.40;99.90
16479;DHT22;8350;52.316;10.530;2023-09-18T04:30:10;15.40;99.90
16479;DHT22;8350;52.316;10.530;2023-09-18T04:32:38;15.40;99.90
16479;DHT22;8350;52.316;10.530;2023-09-18T04:35:06;15.60;99.90
16479;DHT22;8350;52.316;10.530;2023-09-18T04:37:36;15.60;99.90
16479;DHT22;8350;52.316;10.530;2023-09-18T04:40:05;15.60;99.90
16479;DHT22;8350;52.316;10.530;2023-09-18T04:42:36;15.60;99.90
16479;DHT22;8350;52.316;10.530;2023-09-18T04:45:04;15.60;99.90
16479;DHT22;8350;52.316;10.530;2023-09-18T04:47:32;15.60;99.90
16479;DHT22;8350;52.316;10.530;2023-09-18T04:50:03;15.50;99.90
16479;DHT22;8350;52.316;10.530;2023-09-18T04:52:32;15.50;99.90
16479;DHT22;8350;52.316;10.530;2023-09-18T04:54:59;15.50;99.90
16479;DHT22;8350;52.316;10.530;2023-09-18T04:57:25;15.50;99.90
16479;DHT22;8350;52.316;10.530;2023-09-18T04:59:53;15.50;99.90
16479;DHT22;8350;52.316;10.530;2023-09-18T05:02:19;15.50;99.90
16479;DHT22;8350;52.316;10.530;2023-09-18T05:04:46;15.50;99.90
16479;DHT22;8350;52.316;10.530;2023-09-18T05:07:15;15.60;99.90
16479;DHT22;8350;52.316;10.530;2023-09-18T05:09:44;15.60;99.90
16479;DHT22;8350;52.316;10.530;2023-09-18T05:12:11;15.60;99.90
16479;DHT22;8350;52.316;10.530;2023-09-18T05:14:39;15.70;99.90
16479;DHT22;8350;52.316;10.530;2023-09-18T05:17:09;15.70;99.90
16479;DHT22;8350;52.316;10.530;2023-09-18T05:19:36;15.60;99.90
16479;DHT22;8350;52.316;10.530;2023-09-18T05:22:03;15.50;99.90
16479;DHT22;8350;52.316;10.530;2023-09-18T05:24:31;15.60;99.90
16479;DHT22;8350;52.316;10.530;2023-09-18T05:26:58;15.60;99.90
16479;DHT22;8350;52.316;10.530;2023-09-18T05:29:25;15.70;99.90
16479;DHT22;8350;52.316;10.530;2023-09-18T05:31:52;15.90;99.90
16479;DHT22;8350;52.316;10.530;2023-09-18T05:34:19;16.00;99.90
16479;DHT22;8350;52.316;10.530;2023-09-18T05:36:49;16.10;99.90
16479;DHT22;8350;52.316;10.530;2023-09-18T05:39:19;16.20;99.90
16479;DHT22;8350;52.316;10.530;2023-09-18T05:41:47;16.30;99.90
16479;DHT22;8350;52.316;10.530;2023-09-18T05:44:14;16.50;99.90
16479;DHT22;8350;52.316;10.530;2023-09-18T05:46:41;16.80;99.90
16479;DHT22;8350;52.316;10.530;2023-09-18T05:49:11;17.40;99.90
16479;DHT22;8350;52.316;10.530;2023-09-18T05:51:38;18.10;99.90
16479;DHT22;8350;52.316;10.530;2023-09-18T05:54:05;18.60;99.90
16479;DHT22;8350;52.316;10.530;2023-09-18T05:56:33;18.80;99.90
16479;DHT22;8350;52.316;10.530;2023-09-18T05:59:02;19.00;99.90
16479;DHT22;8350;52.316;10.530;2023-09-18T06:01:35;19.20;99.90
16479;DHT22;8350;52.316;10.530;2023-09-18T06:04:03;19.50;99.90
16479;DHT22;8350;52.316;10.530;2023-09-18T06:06:30;20.10;99.90
16479;DHT22;8350;52.316;10.530;2023-09-18T06:08:57;21.00;99.90
16479;DHT22;8350;52.316;10.530;2023-09-18T06:11:24;21.80;99.90
16479;DHT22;8350;52.316;10.530;2023-09-18T06:13:51;22.40;99.90
16479;DHT22;8350;52.316;10.530;2023-09-18T06:16:19;22.80;99.90
16479;DHT22;8350;52.316;10.530;2023-09-18T06:18:46;22.80;99.90
16479;DHT22;8350;52.316;10.530;2023-09-18T06:21:13;22.20;99.90
16479;DHT22;8350;52.316;10.530;2023-09-18T06:23:41;21.70;99.90
16479;DHT22;8350;52.316;10.530;2023-09-18T06:26:10;21.10;99.90
16479;DHT22;8350;52.316;10.530;2023-09-18T06:28:37;21.10;99.90
16479;DHT22;8350;52.316;10.530;2023-09-18T06:31:04;21.20;99.90
16479;DHT22;8350;52.316;10.530;2023-09-18T06:33:33;21.20;99.90
16479;DHT22;8350;52.316;10.530;2023-09-18T06:36:00;20.90;99.90
16479;DHT22;8350;52.316;10.530;2023-09-18T06:38:26;20.90;99.90
16479;DHT22;8350;52.316;10.530;2023-09-18T06:40:53;20.80;99.90
16479;DHT22;8350;52.316;10.530;2023-09-18T06:43:21;20.80;99.90
16479;DHT22;8350;52.316;10.530;2023-09-18T06:45:48;20.80;99.90
16479;DHT22;8350;52.316;10.530;2023-09-18T06:48:15;20.90;99.90
16479;DHT22;8350;52.316;10.530;2023-09-18T06:50:44;20.90;99.90
16479;DHT22;8350;52.316;10.530;2023-09-18T06:53:11;20.90;99.90
16479;DHT22;8350;52.316;10.530;2023-09-18T06:55:38;21.00;99.90
16479;DHT22;8350;52.316;10.530;2023-09-18T06:58:05;20.90;99.90
16479;DHT22;8350;52.316;10.530;2023-09-18T07:00:32;21.00;99.90
16479;DHT22;8350;52.316;10.530;2023-09-18T07:02:59;21.10;99.90
16479;DHT22;8350;52.316;10.530;2023-09-18T07:05:27;21.20;99.90
16479;DHT22;8350;52.316;10.530;2023-09-18T07:07:55;21.20;99.90
16479;DHT22;8350;52.316;10.530;2023-09-18T07:10:22;21.30;99.90
16479;DHT22;8350;52.316;10.530;2023-09-18T07:12:49;21.30;99.90
16479;DHT22;8350;52.316;10.530;2023-09-18T07:15:16;21.30;99.90
16479;DHT22;8350;52.316;10.530;2023-09-18T07:17:43;21.30;99.90
16479;DHT22;8350;52.316;10.530;2023-09-18T07:20:11;21.30;99.90
16479;DHT22;8350;52.316;10.530;2023-09-18T07:22:40;21.30;99.90
16479;DHT22;8350;52.316;10.530;2023-09-18T07:25:09;21.30;99.90
16479;DHT22;8350;52.316;10.530;2023-09-18T07:27:36;21.30;99.90
16479;DHT22;8350;52.316;10.530;2023-09-18T07:30:07;21.20;99.90
16479;DHT22;8350;52.316;10.530;2023-09-18T07:32:35;21.20;99.90
16479;DHT22;8350;52.316;10.530;2023-09-18T07:35:16;21.20;99.90
16479;DHT22;8350;52.316;10.530;2023-09-18T07:37:45;21.20;99.90
16479;DHT22;8350;52.316;10.530;2023-09-18T07:40:14;21.20;99.90
16479;DHT22;8350;52.316;10.530;2023-09-18T07:42:42;21.20;99.90
16479;DHT22;8350;52.316;10.530;2023-09-18T07:45:10;21.30;99.90
16479;DHT22;8350;52.316;10.530;2023-09-18T07:47:37;21.30;99.90
16479;DHT22;8350;52.316;10.530;2023-09-18T07:50:05;21.30;99.90
16479;DHT22;8350;52.316;10.530;2023-09-18T07:52:33;21.30;99.90
16479;DHT22;8350;52.316;10.530;2023-09-18T07:55:00;21.30;99.90
16479;DHT22;8350;52.316;10.530;2023-09-18T07:57:28;21.30;99.90
16479;DHT22;8350;52.316;10.530;2023-09-18T07:59:56;21.40;99.90
16479;DHT22;8350;52.316;10.530;2023-09-18T08:02:25;21.50;99.90
16479;DHT22;8350;52.316;10.530;2023-09-18T08:04:54;21.60;99.90
16479;DHT22;8350;52.316;10.530;2023-09-18T08:07:21;21.70;99.90
16479;DHT22;8350;52.316;10.530;2023-09-18T08:09:48;21.90;99.90
16479;DHT22;8350;52.316;10.530;2023-09-18T08:12:15;22.10;99.90
16479;DHT22;8350;52.316;10.530;2023-09-18T08:14:44;22.20;99.90
16479;DHT22;8350;52.316;10.530;2023-09-18T08:17:11;22.30;99.90
16479;DHT22;8350;52.316;10.530;2023-09-18T08:19:38;22.40;99.90
16479;DHT22;8350;52.316;10.530;2023-09-18T08:22:05;22.40;99.90
16479;DHT22;8350;52.316;10.530;2023-09-18T08:24:34;22.40;99.90
16479;DHT22;8350;52.316;10.530;2023-09-18T08:27:01;22.50;99.90
16479;DHT22;8350;52.316;10.530;2023-09-18T08:29:29;22.70;99.90
16479;DHT22;8350;52.316;10.530;2023-09-18T08:31:57;22.80;99.90
16479;DHT22;8350;52.316;10.530;2023-09-18T08:34:24;23.00;99.90
16479;DHT22;8350;52.316;10.530;2023-09-18T08:36:52;23.10;99.90
16479;DHT22;8350;52.316;10.530;2023-09-18T08:39:19;23.20;99.90
16479;DHT22;8350;52.316;10.530;2023-09-18T08:41:51;23.30;99.90
16479;DHT22;8350;52.316;10.530;2023-09-18T08:44:22;23.30;99.90
16479;DHT22;8350;52.316;10.530;2023-09-18T08:46:58;23.30;99.90
16479;DHT22;8350;52.316;10.530;2023-09-18T08:49:25;23.30;99.90
16479;DHT22;8350;52.316;10.530;2023-09-18T08:51:54;23.30;99.90
16479;DHT22;8350;52.316;10.530;2023-09-18T08:54:22;23.30;99.90
16479;DHT22;8350;52.316;10.530;2023-09-18T08:56:50;23.30;99.90
16479;DHT22;8350;52.316;10.530;2023-09-18T08:59:17;23.30;99.90
16479;DHT22;8350;52.316;10.530;2023-09-18T09:01:46;23.40;99.90
16479;DHT22;8350;52.316;10.530;2023-09-18T09:04:14;23.40;99.90
16479;DHT22;8350;52.316;10.530;2023-09-18T09:06:41;23.40;99.90
16479;DHT22;8350;52.316;10.530;2023-09-18T09:09:09;23.30;99.90
16479;DHT22;8350;52.316;10.530;2023-09-18T09:11:38;23.30;99.90
16479;DHT22;8350;52.316;10.530;2023-09-18T09:14:10;23.20;99.90
16479;DHT22;8350;52.316;10.530;2023-09-18T09:16:46;23.20;99.90
16479;DHT22;8350;52.316;10.530;2023-09-18T09:19:29;23.30;99.90
16479;DHT22;8350;52.316;10.530;2023-09-18T09:21:57;23.40;99.90
16479;DHT22;8350;52.316;10.530;2023-09-18T09:24:37;23.50;99.90
16479;DHT22;8350;52.316;10.530;2023-09-18T09:27:04;23.50;99.90
16479;DHT22;8350;52.316;10.530;2023-09-18T09:29:31;23.50;99.90
16479;DHT22;8350;52.316;10.530;2023-09-18T09:32:12;23.50;99.90
16479;DHT22;8350;52.316;10.530;2023-09-18T09:34:45;23.60;99.90
16479;DHT22;8350;52.316;10.530;2023-09-18T09:37:13;23.70;99.90
16479;DHT22;8350;52.316;10.530;2023-09-18T09:39:49;23.80;99.90
16479;DHT22;8350;52.316;10.530;2023-09-18T09:42:18;23.80;99.90
16479;DHT22;8350;52.316;10.530;2023-09-18T09:44:48;23.80;99.90
16479;DHT22;8350;52.316;10.530;2023-09-18T09:47:15;23.80;99.90
16479;DHT22;8350;52.316;10.530;2023-09-18T09:49:47;23.80;99.90
16479;DHT22;8350;52.316;10.530;2023-09-18T09:52:18;23.70;99.90
16479;DHT22;8350;52.316;10.530;2023-09-18T09:54:47;23.70;99.90
16479;DHT22;8350;52.316;10.530;2023-09-18T09:57:14;23.60;99.90
16479;DHT22;8350;52.316;10.530;2023-09-18T09:59:41;23.60;99.90
16479;DHT22;8350;52.316;10.530;2023-09-18T10:02:10;23.60;99.90
16479;DHT22;8350;52.316;10.530;2023-09-18T10:04:40;23.60;99.90
16479;DHT22;8350;52.316;10.530;2023-09-18T10:07:10;23.50;99.90
16479;DHT22;8350;52.316;10.530;2023-09-18T10:09:41;23.50;99.90
16479;DHT22;8350;52.316;10.530;2023-09-18T10:12:11;23.50;99.90
16479;DHT22;8350;52.316;10.530;2023-09-18T10:14:39;23.50;99.90
16479;DHT22;8350;52.316;10.530;2023-09-18T10:17:15;23.50;99.90
16479;DHT22;8350;52.316;10.530;2023-09-18T10:19:49;23.50;99.90
16479;DHT22;8350;52.316;10.530;2023-09-18T10:22:24;23.50;99.90
16479;DHT22;8350;52.316;10.530;2023-09-18T10:24:56;23.50;99.90
16479;DHT22;8350;52.316;10.530;2023-09-18T10:27:26;23.50;99.90
16479;DHT22;8350;52.316;10.530;2023-09-18T10:29:54;23.60;99.90
16479;DHT22;8350;52.316;10.530;2023-09-18T10:32:22;23.60;99.90
16479;DHT22;8350;52.316;10.530;2023-09-18T10:34:50;23.60;99.90
16479;DHT22;8350;52.316;10.530;2023-09-18T10:37:18;23.60;99.90
16479;DHT22;8350;52.316;10.530;2023-09-18T10:39:48;23.60;99.90
16479;DHT22;8350;52.316;10.530;2023-09-18T10:42:17;23.60;99.90
16479;DHT22;8350;52.316;10.530;2023-09-18T10:44:45;23.60;99.90
16479;DHT22;8350;52.316;10.530;2023-09-18T10:47:13;23.70;99.90
16479;DHT22;8350;52.316;10.530;2023-09-18T10:49:41;23.70;99.90
16479;DHT22;8350;52.316;10.530;2023-09-18T10:52:11;23.80;99.90
16479;DHT22;8350;52.316;10.530;2023-09-18T10:54:38;23.80;99.90
16479;DHT22;8350;52.316;10.530;2023-09-18T10:57:07;23.80;99.90
16479;DHT22;8350;52.316;10.530;2023-09-18T10:59:34;23.80;99.90
16479;DHT22;8350;52.316;10.530;2023-09-18T11:02:13;23.80;99.90
16479;DHT22;8350;52.316;10.530;2023-09-18T11:04:41;23.90;99.90
16479;DHT22;8350;52.316;10.530;2023-09-18T11:07:20;24.00;99.90
16479;DHT22;8350;52.316;10.530;2023-09-18T11:09:47;24.00;99.90
16479;DHT22;8350;52.316;10.530;2023-09-18T11:12:16;24.00;99.90
16479;DHT22;8350;52.316;10.530;2023-09-18T11:14:45;24.10;99.90
16479;DHT22;8350;52.316;10.530;2023-09-18T11:17:36;24.10;99.90
16479;DHT22;8350;52.316;10.530;2023-09-18T11:20:09;24.10;99.90
16479;DHT22;8350;52.316;10.530;2023-09-18T11:22:55;24.20;99.90
16479;DHT22;8350;52.316;10.530;2023-09-18T11:25:36;24.30;99.90
16479;DHT22;8350;52.316;10.530;2023-09-18T11:28:06;24.30;99.90
16479;DHT22;8350;52.316;10.530;2023-09-18T11:30:35;24.30;99.90
16479;DHT22;8350;52.316;10.530;2023-09-18T11:33:03;24.30;99.90
16479;DHT22;8350;52.316;10.530;2023-09-18T11:35:32;24.20;99.90
16479;DHT22;8350;52.316;10.530;2023-09-18T11:38:03;24.40;99.90
16479;DHT22;8350;52.316;10.530;2023-09-18T11:40:33;24.30;99.90
16479;DHT22;8350;52.316;10.530;2023-09-18T11:43:22;24.30;99.90
16479;DHT22;8350;52.316;10.530;2023-09-18T11:45:51;24.40;99.90
16479;DHT22;8350;52.316;10.530;2023-09-18T11:48:20;24.50;99.90
16479;DHT22;8350;52.316;10.530;2023-09-18T11:50:49;24.50;99.90
16479;DHT22;8350;52.316;10.530;2023-09-18T11:53:16;24.50;99.90
16479;DHT22;8350;52.316;10.530;2023-09-18T11:55:45;24.60;99.90
16479;DHT22;8350;52.316;10.530;2023-09-18T11:58:14;24.40;99.90
16479;DHT22;8350;52.316;10.530;2023-09-18T12:00:42;24.40;99.90
16479;DHT22;8350;52.316;10.530;2023-09-18T12:03:16;24.40;99.90
16479;DHT22;8350;52.316;10.530;2023-09-18T12:05:52;24.30;99.90
16479;DHT22;8350;52.316;10.530;2023-09-18T12:08:19;24.20;99.90
16479;DHT22;8350;52.316;10.530;2023-09-18T12:10:49;24.30;99.90
16479;DHT22;8350;52.316;10.530;2023-09-18T12:13:16;24.20;99.90
16479;DHT22;8350;52.316;10.530;2023-09-18T12:15:45;24.10;99.90
16479;DHT22;8350;52.316;10.530;2023-09-18T12:18:14;24.20;99.90
16479;DHT22;8350;52.316;10.530;2023-09-18T12:20:45;24.20;99.90
16479;DHT22;8350;52.316;10.530;2023-09-18T12:23:15;24.30;99.90
16479;DHT22;8350;52.316;10.530;2023-09-18T12:25:45;24.20;99.90
16479;DHT22;8350;52.316;10.530;2023-09-18T12:28:14;24.20;99.90
16479;DHT22;8350;52.316;10.530;2023-09-18T12:30:42;24.40;99.90
16479;DHT22;8350;52.316;10.530;2023-09-18T12:33:13;24.40;99.90
16479;DHT22;8350;52.316;10.530;2023-09-18T12:35:41;24.50;99.90
16479;DHT22;8350;52.316;10.530;2023-09-18T12:38:20;24.30;99.90
16479;DHT22;8350;52.316;10.530;2023-09-18T12:40:52;24.20;99.90
16479;DHT22;8350;52.316;10.530;2023-09-18T12:43:20;24.20;99.90
16479;DHT22;8350;52.316;10.530;2023-09-18T12:45:50;24.10;99.90
16479;DHT22;8350;52.316;10.530;2023-09-18T12:48:19;24.00;99.90
16479;DHT22;8350;52.316;10.530;2023-09-18T12:50:46;24.00;99.90
16479;DHT22;8350;52.316;10.530;2023-09-18T12:53:22;24.00;99.90
16479;DHT22;8350;52.316;10.530;2023-09-18T12:55:49;24.00;99.90
16479;DHT22;8350;52.316;10.530;2023-09-18T12:58:19;24.10;99.90
16479;DHT22;8350;52.316;10.530;2023-09-18T13:00:47;24.10;99.90
16479;DHT22;8350;52.316;10.530;2023-09-18T13:03:15;24.30;99.90
16479;DHT22;8350;52.316;10.530;2023-09-18T13:05:44;24.40;99.90
16479;DHT22;8350;52.316;10.530;2023-09-18T13:08:13;24.30;99.90
16479;DHT22;8350;52.316;10.530;2023-09-18T13:10:42;24.20;99.90
16479;DHT22;8350;52.316;10.530;2023-09-18T13:13:16;24.20;99.90
16479;DHT22;8350;52.316;10.530;2023-09-18T13:15:43;24.10;99.90
16479;DHT22;8350;52.316;10.530;2023-09-18T13:18:13;24.00;99.90
16479;DHT22;8350;52.316;10.530;2023-09-18T13:20:40;23.90;99.90
16479;DHT22;8350;52.316;10.530;2023-09-18T13:23:09;23.90;99.90
16479;DHT22;8350;52.316;10.530;2023-09-18T13:25:39;23.70;99.90
16479;DHT22;8350;52.316;10.530;2023-09-18T13:28:10;23.60;99.90
16479;DHT22;8350;52.316;10.530;2023-09-18T13:30:39;23.60;99.90
16479;DHT22;8350;52.316;10.530;2023-09-18T13:33:07;23.70;99.90
16479;DHT22;8350;52.316;10.530;2023-09-18T13:35:36;23.70;99.90
16479;DHT22;8350;52.316;10.530;2023-09-18T13:38:04;23.70;99.90
16479;DHT22;8350;52.316;10.530;2023-09-18T13:40:35;23.60;99.90
16479;DHT22;8350;52.316;10.530;2023-09-18T13:43:03;23.60;99.90
16479;DHT22;8350;52.316;10.530;2023-09-18T13:45:30;23.50;99.90
16479;DHT22;8350;52.316;10.530;2023-09-18T13:47:57;23.50;99.90
16479;DHT22;8350;52.316;10.530;2023-09-18T13:50:24;23.50;99.90
16479;DHT22;8350;52.316;10.530;2023-09-18T13:52:51;23.40;99.90
16479;DHT22;8350;52.316;10.530;2023-09-18T13:55:19;23.40;99.90
16479;DHT22;8350;52.316;10.530;2023-09-18T13:57:49;23.50;99.90
16479;DHT22;8350;52.316;10.530;2023-09-18T14:00:16;23.50;99.90
16479;DHT22;8350;52.316;10.530;2023-09-18T14:02:43;23.60;99.90
16479;DHT22;8350;52.316;10.530;2023-09-18T14:05:11;23.60;99.90
16479;DHT22;8350;52.316;10.530;2023-09-18T14:07:39;23.60;99.90
16479;DHT22;8350;52.316;10.530;2023-09-18T14:10:07;23.60;99.90
16479;DHT22;8350;52.316;10.530;2023-09-18T14:12:35;23.50;99.90
16479;DHT22;8350;52.316;10.530;2023-09-18T14:15:05;23.50;99.90
16479;DHT22;8350;52.316;10.530;2023-09-18T14:17:33;23.50;99.90
16479;DHT22;8350;52.316;10.530;2023-09-18T14:20:00;23.40;99.90
16479;DHT22;8350;52.316;10.530;2023-09-18T14:22:32;23.50;99.90
16479;DHT22;8350;52.316;10.530;2023-09-18T14:24:59;23.50;99.90
16479;DHT22;8350;52.316;10.530;2023-09-18T14:27:29;23.40;99.90
16479;DHT22;8350;52.316;10.530;2023-09-18T14:29:56;23.40;99.90
16479;DHT22;8350;52.316;10.530;2023-09-18T14:32:25;23.50;99.90
16479;DHT22;8350;52.316;10.530;2023-09-18T14:34:52;23.40;99.90
16479;DHT22;8350;52.316;10.530;2023-09-18T14:37:19;23.40;99.90
16479;DHT22;8350;52.316;10.530;2023-09-18T14:39:46;23.40;99.90
16479;DHT22;8350;52.316;10.530;2023-09-18T14:42:13;23.40;99.90
16479;DHT22;8350;52.316;10.530;2023-09-18T14:44:40;23.50;99.90
16479;DHT22;8350;52.316;10.530;2023-09-18T14:47:10;23.50;99.90
16479;DHT22;8350;52.316;10.530;2023-09-18T14:49:39;23.40;99.90
16479;DHT22;8350;52.316;10.530;2023-09-18T14:52:06;23.40;99.90
16479;DHT22;8350;52.316;10.530;2023-09-18T14:54:33;23.30;99.90
16479;DHT22;8350;52.316;10.530;2023-09-18T14:57:00;23.40;99.90
16479;DHT22;8350;52.316;10.530;2023-09-18T14:59:29;23.40;99.90
16479;DHT22;8350;52.316;10.530;2023-09-18T15:01:56;23.30;99.90
16479;DHT22;8350;52.316;10.530;2023-09-18T15:04:23;23.20;99.90
16479;DHT22;8350;52.316;10.530;2023-09-18T15:06:51;23.20;99.90
16479;DHT22;8350;52.316;10.530;2023-09-18T15:09:18;23.20;99.90
16479;DHT22;8350;52.316;10.530;2023-09-18T15:11:45;23.20;99.90
16479;DHT22;8350;52.316;10.530;2023-09-18T15:14:12;23.10;99.90
16479;DHT22;8350;52.316;10.530;2023-09-18T15:16:41;23.10;99.90
16479;DHT22;8350;52.316;10.530;2023-09-18T15:19:09;23.10;99.90
16479;DHT22;8350;52.316;10.530;2023-09-18T15:21:36;23.00;99.90
16479;DHT22;8350;52.316;10.530;2023-09-18T15:24:07;23.00;99.90
16479;DHT22;8350;52.316;10.530;2023-09-18T15:26:35;23.00;99.90
16479;DHT22;8350;52.316;10.530;2023-09-18T15:29:02;22.90;99.90
16479;DHT22;8350;52.316;10.530;2023-09-18T15:31:29;23.00;99.90
16479;DHT22;8350;52.316;10.530;2023-09-18T15:33:58;23.00;99.90
16479;DHT22;8350;52.316;10.530;2023-09-18T15:36:25;23.00;99.90
16479;DHT22;8350;52.316;10.530;2023-09-18T15:38:52;22.90;99.90